createdAt,value
2022-10-17T00:01:07.472Z,24.80
2022-10-17T00:03:37.301Z,22.30
2022-10-17T00:06:15.639Z,23.10
2022-10-17T00:08:45.185Z,23.60
2022-10-17T00:11:23.927Z,23.40
2022-10-17T00:13:55.749Z,24.40
2022-10-17T00:16:30.980Z,24.20
2022-10-17T00:18:58.574Z,25.50
2022-10-17T00:21:27.170Z,20.90
2022-10-17T00:23:55.679Z,20.70
2022-10-17T00:26:23.462Z,23.70
2022-10-17T00:28:52.889Z,26.00
2022-10-17T00:31:23.147Z,22.90
2022-10-17T00:33:52.258Z,21.60
2022-10-17T00:36:25.979Z,27.00
2022-10-17T00:38:58.054Z,19.60
2022-10-17T00:41:33.402Z,21.70
2022-10-17T00:44:31.888Z,19.40
2022-10-17T00:47:05.263Z,21.80
2022-10-17T00:49:36.581Z,16.90
2022-10-17T00:52:18.341Z,18.10
2022-10-17T00:54:56.071Z,19.30
2022-10-17T00:57:27.170Z,19.60
2022-10-17T00:59:59.392Z,18.10
2022-10-17T01:02:27.349Z,19.30
2022-10-17T01:04:59.430Z,15.90
2022-10-17T01:07:33.169Z,16.50
2022-10-17T01:10:06.197Z,19.30
2022-10-17T01:12:52.156Z,18.10
2022-10-17T01:15:55.424Z,17.70
2022-10-17T01:18:45.203Z,16.40
2022-10-17T01:21:51.750Z,17.20
2022-10-17T01:24:39.557Z,19.10
2022-10-17T01:27:42.285Z,17.70
2022-10-17T01:30:29.289Z,19.10
2022-10-17T01:33:02.894Z,17.70
2022-10-17T01:35:44.518Z,18.70
2022-10-17T01:38:23.821Z,16.50
2022-10-17T01:41:10.858Z,17.90
2022-10-17T01:43:47.135Z,17.30
2022-10-17T01:46:37.157Z,19.00
2022-10-17T01:49:09.765Z,17.30
2022-10-17T01:51:47.858Z,15.10
2022-10-17T01:54:39.344Z,18.80
2022-10-17T01:57:22.017Z,18.50
2022-10-17T01:59:52.756Z,17.30
2022-10-17T02:02:21.652Z,15.30
2022-10-17T02:04:52.135Z,18.20
2022-10-17T02:07:19.834Z,19.90
2022-10-17T02:09:47.449Z,18.30
2022-10-17T02:12:47.209Z,18.70
2022-10-17T02:15:55.153Z,19.30
2022-10-17T02:18:48.208Z,15.40
2022-10-17T02:21:46.323Z,19.40
2022-10-17T02:24:33.213Z,20.70
2022-10-17T02:27:20.373Z,18.80
2022-10-17T02:30:03.472Z,19.70
2022-10-17T02:33:01.020Z,20.30
2022-10-17T02:35:35.374Z,20.80
2022-10-17T02:38:07.858Z,20.60
2022-10-17T02:40:38.278Z,21.60
2022-10-17T02:43:06.083Z,22.70
2022-10-17T02:45:37.669Z,20.50
2022-10-17T02:48:14.689Z,19.30
2022-10-17T02:50:45.253Z,22.00
2022-10-17T02:53:24.962Z,21.30
2022-10-17T02:56:02.659Z,19.30
2022-10-17T02:58:36.305Z,23.20
2022-10-17T03:01:05.914Z,21.30
2022-10-17T03:03:33.734Z,18.70
2022-10-17T03:06:01.431Z,20.20
2022-10-17T03:08:29.100Z,20.30
2022-10-17T03:10:56.816Z,23.00
2022-10-17T03:13:24.491Z,20.70
2022-10-17T03:15:52.090Z,18.90
2022-10-17T03:18:19.705Z,22.40
2022-10-17T03:20:47.260Z,18.60
2022-10-17T03:23:15.084Z,19.10
2022-10-17T03:25:42.754Z,21.40
2022-10-17T03:28:12.243Z,16.40
2022-10-17T03:30:39.796Z,21.20
2022-10-17T03:33:07.491Z,19.60
2022-10-17T03:35:40.329Z,20.60
2022-10-17T03:38:07.981Z,19.90
2022-10-17T03:40:35.577Z,17.70
2022-10-17T03:43:03.984Z,18.30
2022-10-17T03:45:31.602Z,18.90
2022-10-17T03:48:00.233Z,17.10
2022-10-17T03:50:27.882Z,17.00
2022-10-17T03:52:55.549Z,17.60
2022-10-17T03:55:24.458Z,19.20
2022-10-17T03:57:52.032Z,13.20
2022-10-17T04:00:19.761Z,19.50
2022-10-17T04:02:47.298Z,17.40
2022-10-17T04:05:15.014Z,17.20
2022-10-17T04:07:42.594Z,15.10
2022-10-17T04:10:11.002Z,17.20
2022-10-17T04:12:38.944Z,17.80
2022-10-17T04:15:07.659Z,17.20
2022-10-17T04:17:37.997Z,18.20
2022-10-17T04:20:06.925Z,15.70
2022-10-17T04:22:34.626Z,19.70
2022-10-17T04:25:02.441Z,16.50
2022-10-17T04:27:30.195Z,17.70
2022-10-17T04:29:57.816Z,16.80
2022-10-17T04:32:26.055Z,15.80
2022-10-17T04:34:53.815Z,16.40
2022-10-17T04:37:21.425Z,18.00
2022-10-17T04:39:48.990Z,16.30
2022-10-17T04:42:16.985Z,14.60
2022-10-17T04:44:44.645Z,14.60
2022-10-17T04:47:12.285Z,18.10
2022-10-17T04:52:12.360Z,14.50
2022-10-17T04:54:39.943Z,15.80
2022-10-17T04:57:07.605Z,15.50
2022-10-17T04:59:35.212Z,14.80
2022-10-17T05:02:02.733Z,14.50
2022-10-17T05:04:30.310Z,16.90
2022-10-17T05:06:57.857Z,15.20
2022-10-17T05:09:25.590Z,15.30
2022-10-17T05:11:53.293Z,16.40
2022-10-17T05:14:21.322Z,17.70
2022-10-17T05:16:48.940Z,15.10
2022-10-17T05:19:18.428Z,17.70
2022-10-17T05:21:45.992Z,13.60
2022-10-17T05:24:15.306Z,13.80
2022-10-17T05:26:43.175Z,13.20
2022-10-17T05:29:11.120Z,18.60
2022-10-17T05:31:38.792Z,13.60
2022-10-17T05:34:09.020Z,14.60
2022-10-17T05:36:39.273Z,14.50
2022-10-17T05:39:06.893Z,15.40
2022-10-17T05:41:34.924Z,14.30
2022-10-17T05:44:05.366Z,12.20
2022-10-17T05:46:33.432Z,16.40
2022-10-17T05:49:01.022Z,18.20
2022-10-17T05:51:28.792Z,13.80
2022-10-17T05:53:56.432Z,16.30
2022-10-17T05:56:24.101Z,15.70
2022-10-17T05:58:55.048Z,18.40
2022-10-17T06:01:24.547Z,16.00
2022-10-17T06:03:52.381Z,14.70
2022-10-17T06:06:20.382Z,16.70
2022-10-17T06:08:47.974Z,18.20
2022-10-17T06:11:15.654Z,13.90
2022-10-17T06:13:43.453Z,13.20
2022-10-17T06:16:11.058Z,16.60
2022-10-17T06:18:39.159Z,14.60
2022-10-17T06:21:11.444Z,14.70
2022-10-17T06:23:39.063Z,17.90
2022-10-17T06:26:07.714Z,13.90
2022-10-17T06:28:36.716Z,14.80
2022-10-17T06:31:10.696Z,14.50
2022-10-17T06:33:39.229Z,20.00
2022-10-17T06:36:11.600Z,14.80
2022-10-17T06:38:39.458Z,17.30
2022-10-17T06:41:18.922Z,18.90
2022-10-17T06:43:47.690Z,13.00
2022-10-17T06:46:18.407Z,16.00
2022-10-17T06:48:46.219Z,14.50
2022-10-17T06:51:13.966Z,17.90
2022-10-17T06:53:41.517Z,14.60
2022-10-17T06:56:10.879Z,14.60
2022-10-17T06:58:40.457Z,17.70
2022-10-17T07:01:12.042Z,16.00
2022-10-17T07:03:41.233Z,16.80
2022-10-17T07:06:11.404Z,15.10
2022-10-17T07:08:44.307Z,14.10
2022-10-17T07:11:19.508Z,14.60
2022-10-17T07:13:48.526Z,14.30
2022-10-17T07:16:17.231Z,17.80
2022-10-17T07:18:50.630Z,16.90
2022-10-17T07:21:18.573Z,16.10
2022-10-17T07:23:46.608Z,15.40
2022-10-17T07:26:17.379Z,16.60
2022-10-17T07:28:51.002Z,13.30
2022-10-17T07:31:20.550Z,15.00
2022-10-17T07:33:49.121Z,14.40
2022-10-17T07:36:17.891Z,13.20
2022-10-17T07:38:45.593Z,14.00
2022-10-17T07:41:17.780Z,18.90
2022-10-17T07:43:48.721Z,13.70
2022-10-17T07:46:16.288Z,12.70
2022-10-17T07:48:43.857Z,14.50
2022-10-17T07:51:11.475Z,13.00
2022-10-17T07:53:41.758Z,17.70
2022-10-17T07:56:12.480Z,12.60
2022-10-17T07:58:40.483Z,14.90
2022-10-17T08:01:15.420Z,17.00
2022-10-17T08:03:45.821Z,13.50
2022-10-17T08:06:13.564Z,12.60
2022-10-17T08:08:42.253Z,14.70
2022-10-17T08:11:14.352Z,14.90
2022-10-17T08:13:42.180Z,13.60
2022-10-17T08:16:13.272Z,14.50
2022-10-17T08:18:43.308Z,13.80
2022-10-17T08:21:13.252Z,14.50
2022-10-17T08:23:41.770Z,16.40
2022-10-17T08:26:13.326Z,15.30
2022-10-17T08:28:41.055Z,12.80
2022-10-17T08:31:14.653Z,12.10
2022-10-17T08:33:42.395Z,12.20
2022-10-17T08:36:13.642Z,14.80
2022-10-17T08:38:43.691Z,14.80
2022-10-17T08:41:42.758Z,11.70
2022-10-17T08:44:25.800Z,13.10
2022-10-17T08:46:59.073Z,14.10
2022-10-17T08:49:57.593Z,11.40
2022-10-17T08:53:02.928Z,14.30
2022-10-17T08:55:45.314Z,17.90
2022-10-17T08:58:32.577Z,12.20
2022-10-17T09:01:44.469Z,13.00
2022-10-17T09:04:42.182Z,20.70
2022-10-17T09:07:18.999Z,17.50
2022-10-17T09:10:15.551Z,19.30
2022-10-17T09:13:06.925Z,14.50
2022-10-17T09:15:55.212Z,14.60
2022-10-17T09:18:32.921Z,15.30
2022-10-17T09:21:42.835Z,13.10
2022-10-17T09:24:37.576Z,14.50
2022-10-17T09:27:22.074Z,17.30
2022-10-17T09:30:40.012Z,11.20
2022-10-17T09:33:53.848Z,11.70
2022-10-17T09:36:35.756Z,12.70
2022-10-17T09:39:22.324Z,14.70
2022-10-17T09:41:55.478Z,14.10
2022-10-17T09:44:34.000Z,13.10
2022-10-17T09:47:10.655Z,13.70
2022-10-17T09:49:42.373Z,14.70
2022-10-17T09:52:20.980Z,13.30
2022-10-17T09:54:57.396Z,14.00
2022-10-17T09:57:26.333Z,12.50
2022-10-17T10:00:05.015Z,15.50
2022-10-17T10:02:36.382Z,15.10
2022-10-17T10:05:16.573Z,16.00
2022-10-17T10:08:03.352Z,12.10
2022-10-17T10:10:32.343Z,13.50
2022-10-17T10:13:15.680Z,11.40
2022-10-17T10:15:49.507Z,13.90
2022-10-17T10:18:26.189Z,14.40
2022-10-17T10:21:06.773Z,12.10
2022-10-17T10:23:40.078Z,14.00
2022-10-17T10:26:25.877Z,14.10
2022-10-17T10:29:30.773Z,12.90
2022-10-17T10:32:11.986Z,14.80
2022-10-17T10:34:53.372Z,13.90
2022-10-17T10:37:38.950Z,12.30
2022-10-17T10:40:19.867Z,13.80
2022-10-17T10:42:52.753Z,16.70
2022-10-17T10:48:37.004Z,13.60
2022-10-17T10:51:10.025Z,12.50
2022-10-17T10:53:58.741Z,12.20
2022-10-17T10:57:07.316Z,13.70
2022-10-17T11:00:04.729Z,14.30
2022-10-17T11:03:01.821Z,17.10
2022-10-17T11:05:46.215Z,13.90
2022-10-17T11:08:51.040Z,11.50
2022-10-17T11:11:49.086Z,11.50
2022-10-17T11:14:30.407Z,10.30
2022-10-17T11:17:28.846Z,13.30
2022-10-17T11:20:09.718Z,14.20
2022-10-17T11:22:44.486Z,12.10
2022-10-17T11:25:12.001Z,11.70
2022-10-17T11:27:39.554Z,10.30
2022-10-17T11:30:13.873Z,9.60
2022-10-17T11:32:58.100Z,10.70
2022-10-17T11:35:42.107Z,11.30
2022-10-17T11:38:42.006Z,11.50
2022-10-17T11:41:22.116Z,9.60
2022-10-17T11:44:19.516Z,12.60
2022-10-17T11:46:56.379Z,11.20
2022-10-17T11:49:46.093Z,10.10
2022-10-17T11:52:44.412Z,13.70
2022-10-17T11:55:26.495Z,9.60
2022-10-17T11:58:38.481Z,11.70
2022-10-17T12:01:38.934Z,10.10
2022-10-17T12:05:06.928Z,15.10
2022-10-17T12:08:01.170Z,10.10
2022-10-17T12:10:46.566Z,12.90
2022-10-17T12:13:29.243Z,10.60
2022-10-17T12:16:20.680Z,9.30
2022-10-17T12:19:23.089Z,9.90
2022-10-17T12:22:20.042Z,10.30
2022-10-17T12:25:03.184Z,11.90
2022-10-17T12:27:36.027Z,12.30
2022-10-17T12:30:26.057Z,12.20
2022-10-17T12:33:22.441Z,8.80
2022-10-17T12:36:11.626Z,9.40
2022-10-17T12:38:39.222Z,11.90
2022-10-17T12:41:06.855Z,11.40
2022-10-17T12:43:53.589Z,13.90
2022-10-17T12:47:07.965Z,9.40
2022-10-17T12:49:54.414Z,8.20
2022-10-17T12:52:35.034Z,12.50
2022-10-17T12:55:25.509Z,9.20
2022-10-17T12:58:08.143Z,9.00
2022-10-17T13:01:22.530Z,9.40
2022-10-17T13:03:52.394Z,8.20
2022-10-17T13:06:28.279Z,9.70
2022-10-17T13:09:24.186Z,11.10
2022-10-17T13:11:54.395Z,9.40
2022-10-17T13:14:24.548Z,9.00
2022-10-17T13:17:00.442Z,11.20
2022-10-17T13:19:42.934Z,10.00
2022-10-17T13:22:16.825Z,11.20
2022-10-17T13:24:44.995Z,12.00
2022-10-17T13:27:34.498Z,8.50
2022-10-17T13:30:41.370Z,9.70
2022-10-17T13:33:39.246Z,8.40
2022-10-17T13:36:15.652Z,9.00
2022-10-17T13:38:43.420Z,11.80
2022-10-17T13:41:34.878Z,9.00
2022-10-17T13:44:12.136Z,7.30
2022-10-17T13:46:40.741Z,8.20
2022-10-17T13:49:18.822Z,8.20
2022-10-17T13:51:51.819Z,8.20
2022-10-17T13:54:40.919Z,9.50
2022-10-17T13:57:26.965Z,9.40
2022-10-17T14:00:09.910Z,8.40
2022-10-17T14:02:41.864Z,10.70
2022-10-17T14:05:19.307Z,7.50
2022-10-17T14:08:22.799Z,9.40
2022-10-17T14:10:50.562Z,8.90
2022-10-17T14:13:28.852Z,7.60
2022-10-17T14:16:02.883Z,9.80
2022-10-17T14:18:36.643Z,7.60
2022-10-17T14:21:36.943Z,8.10
2022-10-17T14:24:22.502Z,9.20
2022-10-17T14:26:54.712Z,7.60
2022-10-17T14:29:27.686Z,9.60
2022-10-17T14:32:13.801Z,10.40
2022-10-17T14:34:41.799Z,9.90
2022-10-17T14:37:17.297Z,8.50
2022-10-17T14:39:51.010Z,9.50
2022-10-17T14:42:21.907Z,9.40
2022-10-17T14:44:52.631Z,8.10
2022-10-17T14:47:42.720Z,8.20
2022-10-17T14:50:11.450Z,7.80
2022-10-17T14:52:39.875Z,9.60
2022-10-17T14:55:27.151Z,8.60
2022-10-17T14:57:54.847Z,9.20
2022-10-17T15:00:24.913Z,7.60
2022-10-17T15:02:55.179Z,8.70
2022-10-17T15:05:23.411Z,9.70
2022-10-17T15:07:51.869Z,10.00
2022-10-17T15:10:33.867Z,8.50
2022-10-17T15:13:27.184Z,7.40
2022-10-17T15:15:52.124Z,9.50
2022-10-17T15:18:20.213Z,7.90
2022-10-17T15:20:51.961Z,10.50
2022-10-17T15:23:27.353Z,8.60
2022-10-17T15:25:55.002Z,6.90
2022-10-17T15:28:22.622Z,7.20
2022-10-17T15:30:50.201Z,7.70
2022-10-17T15:33:17.870Z,8.80
2022-10-17T15:35:45.912Z,9.00
2022-10-17T15:38:18.066Z,8.90
2022-10-17T15:40:48.973Z,8.90
2022-10-17T15:43:19.850Z,10.70
2022-10-17T15:45:48.570Z,11.60
2022-10-17T15:48:25.769Z,9.40
2022-10-17T15:50:53.372Z,9.30
2022-10-17T15:53:21.205Z,9.40
2022-10-17T15:55:50.987Z,7.20
2022-10-17T15:58:19.667Z,8.90
2022-10-17T16:00:48.408Z,9.80
2022-10-17T16:03:16.100Z,10.80
2022-10-17T16:05:43.743Z,12.00
2022-10-17T16:08:11.339Z,11.20
2022-10-17T16:10:40.787Z,10.60
2022-10-17T16:13:18.248Z,10.90
2022-10-17T16:15:46.215Z,11.90
2022-10-17T16:18:14.510Z,10.40
2022-10-17T16:20:42.168Z,8.80
2022-10-17T16:23:12.854Z,11.30
2022-10-17T16:25:41.184Z,9.10
2022-10-17T16:28:09.519Z,15.20
2022-10-17T16:30:44.833Z,12.90
2022-10-17T16:33:12.698Z,11.90
2022-10-17T16:35:40.647Z,12.00
2022-10-17T16:38:08.366Z,13.70
2022-10-17T16:40:39.816Z,12.90
2022-10-17T16:43:12.278Z,14.20
2022-10-17T16:45:41.149Z,13.20
2022-10-17T16:48:09.820Z,11.90
2022-10-17T16:50:40.044Z,12.90
2022-10-17T16:53:07.768Z,10.80
2022-10-17T16:55:35.508Z,11.10
2022-10-17T16:58:03.085Z,11.90
2022-10-17T17:00:30.857Z,13.00
2022-10-17T17:02:58.467Z,13.00
2022-10-17T17:05:26.198Z,13.50
2022-10-17T17:07:55.618Z,12.90
2022-10-17T17:10:23.233Z,12.90
2022-10-17T17:12:51.094Z,14.40
2022-10-17T17:15:18.804Z,14.90
2022-10-17T17:17:52.491Z,14.00
2022-10-17T17:20:23.020Z,14.70
2022-10-17T17:22:51.908Z,14.60
2022-10-17T17:25:19.775Z,13.70
2022-10-17T17:27:47.476Z,12.50
2022-10-17T17:30:16.209Z,13.30
2022-10-17T17:32:43.810Z,12.60
2022-10-17T17:35:11.342Z,13.90
2022-10-17T17:37:38.940Z,12.20
2022-10-17T17:40:07.652Z,10.90
2022-10-17T17:42:35.317Z,11.20
2022-10-17T17:45:04.095Z,12.90
2022-10-17T17:47:31.972Z,11.70
2022-10-17T17:49:59.697Z,9.00
2022-10-17T17:52:27.464Z,8.70
2022-10-17T17:54:56.239Z,11.90
2022-10-17T17:57:23.812Z,11.50
2022-10-17T17:59:52.291Z,10.60
2022-10-17T18:02:19.869Z,9.00
2022-10-17T18:04:48.613Z,8.70
2022-10-17T18:07:16.248Z,10.30
2022-10-17T18:09:43.905Z,14.80
2022-10-17T18:12:11.535Z,11.10
2022-10-17T18:14:39.188Z,11.10
2022-10-17T18:17:06.792Z,10.20
2022-10-17T18:19:34.817Z,12.50
2022-10-17T18:22:02.657Z,9.80
2022-10-17T18:24:30.225Z,10.30
2022-10-17T18:26:59.950Z,10.80
2022-10-17T18:29:29.505Z,8.90
2022-10-17T18:31:57.086Z,11.10
2022-10-17T18:34:25.665Z,10.60
2022-10-17T18:36:56.305Z,13.40
2022-10-17T18:39:24.192Z,9.20
2022-10-17T18:41:51.804Z,10.50
2022-10-17T18:44:19.683Z,12.00
2022-10-17T18:46:47.456Z,12.20
2022-10-17T18:49:18.963Z,11.70
2022-10-17T18:51:47.253Z,12.20
2022-10-17T18:54:20.499Z,10.00
2022-10-17T18:56:53.628Z,11.00
2022-10-17T18:59:22.149Z,9.90
2022-10-17T19:01:49.858Z,13.20
2022-10-17T19:04:17.850Z,10.90
2022-10-17T19:06:45.408Z,10.90
2022-10-17T19:09:14.810Z,9.80
2022-10-17T19:11:43.007Z,8.40
2022-10-17T19:14:13.444Z,9.30
2022-10-17T19:16:46.354Z,10.90
2022-10-17T19:19:21.956Z,9.90
2022-10-17T19:21:50.958Z,11.30
2022-10-17T19:24:25.177Z,13.10
2022-10-17T19:26:55.770Z,11.20
2022-10-17T19:29:27.668Z,11.10
2022-10-17T19:34:23.755Z,12.60
2022-10-17T19:36:51.393Z,12.00
2022-10-17T19:39:23.281Z,11.60
2022-10-17T19:41:51.385Z,12.00
2022-10-17T19:44:19.412Z,12.70
2022-10-17T19:46:49.169Z,11.40
2022-10-17T19:49:18.215Z,14.80
2022-10-17T19:51:45.883Z,16.10
2022-10-17T19:54:15.169Z,18.60
2022-10-17T19:56:43.512Z,25.90
2022-10-17T19:59:14.716Z,24.20
2022-10-17T20:01:43.602Z,25.90
2022-10-17T20:04:13.500Z,22.80
2022-10-17T20:06:41.619Z,21.90
2022-10-17T20:09:14.049Z,20.20
2022-10-17T20:11:45.477Z,16.10
2022-10-17T20:14:13.159Z,15.20
2022-10-17T20:16:40.864Z,16.20
2022-10-17T20:19:11.939Z,12.70
2022-10-17T20:21:40.311Z,13.30
2022-10-17T20:24:14.242Z,16.80
2022-10-17T20:26:42.774Z,15.90
2022-10-17T20:29:20.414Z,13.40
2022-10-17T20:31:48.603Z,13.70
2022-10-17T20:34:19.064Z,12.40
2022-10-17T20:36:48.012Z,14.50
2022-10-17T20:39:18.810Z,17.40
2022-10-17T20:41:46.991Z,16.70
2022-10-17T20:44:14.639Z,14.60
2022-10-17T20:46:52.722Z,13.40
2022-10-17T20:49:26.493Z,15.80
2022-10-17T20:51:53.993Z,12.60
2022-10-17T20:54:22.433Z,12.10
2022-10-17T20:56:50.140Z,10.00
2022-10-17T20:59:18.597Z,11.70
2022-10-17T21:01:47.847Z,12.70
2022-10-17T21:04:44.100Z,12.70
2022-10-17T21:07:03.657Z,10.00
2022-10-17T21:09:31.381Z,11.60
2022-10-17T21:11:58.997Z,12.10
2022-10-17T21:14:26.582Z,12.80
2022-10-17T21:16:54.256Z,11.20
2022-10-17T21:19:22.057Z,10.40
2022-10-17T21:21:50.511Z,13.30
2022-10-17T21:24:20.511Z,11.40
2022-10-17T21:26:55.243Z,13.00
2022-10-17T21:29:24.058Z,14.00
2022-10-17T21:31:52.812Z,13.60
2022-10-17T21:34:25.006Z,13.00
2022-10-17T21:36:53.450Z,13.00
2022-10-17T21:39:22.944Z,12.10
2022-10-17T21:41:51.669Z,11.30
2022-10-17T21:44:24.845Z,10.90
2022-10-17T21:46:53.860Z,10.90
2022-10-17T21:49:25.019Z,14.30
2022-10-17T21:51:53.576Z,11.40
2022-10-17T21:54:23.587Z,10.70
2022-10-17T21:56:52.688Z,12.60
2022-10-17T21:59:20.277Z,13.00
2022-10-17T22:01:47.995Z,14.50
2022-10-17T22:04:19.016Z,13.20
2022-10-17T22:06:51.156Z,13.20
2022-10-17T22:09:25.728Z,13.90
2022-10-17T22:11:56.650Z,11.00
2022-10-17T22:14:27.279Z,12.70
2022-10-17T22:16:55.566Z,11.60
2022-10-17T22:19:26.697Z,12.80
2022-10-17T22:21:55.048Z,9.60
2022-10-17T22:24:23.322Z,10.70
2022-10-17T22:26:51.727Z,13.70
2022-10-17T22:29:20.175Z,11.00
2022-10-17T22:31:47.805Z,12.40
2022-10-17T22:34:17.960Z,9.40
2022-10-17T22:36:47.779Z,12.00
2022-10-17T22:39:15.653Z,10.50
2022-10-17T22:41:43.244Z,10.70
2022-10-17T22:44:10.872Z,12.40
2022-10-17T22:46:38.683Z,11.60
2022-10-17T22:49:06.284Z,11.10
2022-10-17T22:51:33.885Z,10.70
2022-10-17T22:54:01.578Z,11.70
2022-10-17T22:56:29.233Z,12.60
2022-10-17T22:58:56.822Z,14.00
2022-10-17T23:01:25.819Z,17.20
2022-10-17T23:03:54.185Z,14.20
2022-10-17T23:06:22.436Z,13.90
2022-10-17T23:08:50.161Z,17.10
2022-10-17T23:11:18.477Z,12.90
2022-10-17T23:13:46.239Z,10.10
2022-10-17T23:16:13.755Z,9.80
2022-10-17T23:18:41.863Z,12.20
2022-10-17T23:21:10.245Z,12.00
2022-10-17T23:23:37.801Z,11.70
2022-10-17T23:26:13.447Z,9.10
2022-10-17T23:28:42.901Z,11.40
2022-10-17T23:31:19.870Z,10.40
2022-10-17T23:33:49.896Z,8.70
2022-10-17T23:36:20.593Z,9.70
2022-10-17T23:38:49.013Z,9.90
2022-10-17T23:41:17.157Z,8.70
2022-10-17T23:43:45.051Z,7.90
2022-10-17T23:46:13.467Z,9.70
2022-10-17T23:48:41.372Z,9.00
2022-10-17T23:51:10.427Z,7.80
2022-10-17T23:53:39.438Z,9.90
2022-10-17T23:56:09.026Z,10.30
2022-10-17T23:58:38.756Z,9.10
